Time;durP1;ratioP1;P1;durP2;ratioP2;P2;SDS_P1;SDS_P2;PMS_P1;PMS_P2;Temp;Humidity;BMP_temperature;BMP_pressure;BME280_temperature;BME280_humidity;BME280_pressure;Samples;Min_cycle;Max_cycle;Signal;HPM_P1;HPM_P2
2022/06/17 00:01:41;;;;;;;6.03;3.13;;;24.40;44.70;;;;;;5034787;28;20457;-63
2022/06/17 00:04:07;;;;;;;3.00;2.70;;;24.40;44.80;;;;;;5033976;28;20184;-64
2022/06/17 00:06:42;;;;;;;3.57;2.30;;;24.40;44.90;;;;;;5035536;28;20237;-64
2022/06/17 00:09:10;;;;;;;4.30;3.17;;;24.30;44.80;;;;;;5038327;28;21003;-65
2022/06/17 00:11:37;;;;;;;2.97;2.37;;;24.30;44.80;;;;;;5050173;28;20489;-64
2022/06/17 00:14:09;;;;;;;3.70;2.90;;;24.30;45.00;;;;;;5034177;28;20796;-64
2022/06/17 00:16:35;;;;;;;3.50;2.83;;;24.20;45.00;;;;;;5029741;28;20501;-64
2022/06/17 00:19:01;;;;;;;4.10;2.90;;;24.10;45.10;;;;;;5033470;28;20477;-64
2022/06/17 00:21:30;;;;;;;4.03;2.70;;;24.10;45.20;;;;;;5034810;28;20526;-64
2022/06/17 00:23:56;;;;;;;3.30;2.60;;;24.10;45.50;;;;;;5031411;28;20267;-64
2022/06/17 00:26:22;;;;;;;4.03;2.80;;;24.00;45.60;;;;;;5034233;28;20565;-64
2022/06/17 00:28:48;;;;;;;3.17;2.73;;;24.00;45.60;;;;;;5035100;28;20186;-65
2022/06/17 00:31:15;;;;;;;2.60;2.40;;;23.90;45.60;;;;;;5031070;28;20273;-65
2022/06/17 00:33:41;;;;;;;3.50;2.80;;;23.90;45.70;;;;;;5048235;28;20438;-64
2022/06/17 00:36:13;;;;;;;2.80;2.60;;;23.90;45.90;;;;;;5035665;28;20439;-65
2022/06/17 00:38:38;;;;;;;2.93;2.73;;;23.80;45.90;;;;;;5031005;28;20524;-65
2022/06/17 00:41:25;;;;;;;4.30;2.90;;;23.70;46.10;;;;;;5032565;28;20594;-65
2022/06/17 00:43:51;;;;;;;3.67;2.80;;;23.70;46.20;;;;;;5035908;28;20187;-65
2022/06/17 00:46:43;;;;;;;4.20;2.97;;;23.70;46.20;;;;;;5034592;28;20485;-65
2022/06/17 00:49:26;;;;;;;2.80;2.50;;;23.60;46.40;;;;;;5035042;28;20192;-65
2022/06/17 00:51:59;;;;;;;3.23;2.57;;;23.50;46.60;;;;;;5032018;28;20474;-65
2022/06/17 00:54:41;;;;;;;4.40;2.87;;;23.50;46.60;;;;;;5034912;28;20779;-64
2022/06/17 00:57:18;;;;;;;4.70;3.00;;;23.50;46.80;;;;;;5036776;28;20958;-65
2022/06/17 01:00:11;;;;;;;3.10;2.80;;;23.50;46.90;;;;;;5034981;28;20450;-64
2022/06/17 01:02:58;;;;;;;4.50;2.97;;;23.40;47.00;;;;;;5031736;28;20549;-65
2022/06/17 01:05:50;;;;;;;3.50;3.00;;;23.40;47.10;;;;;;5033263;28;20619;-65
2022/06/17 01:11:15;;;;;;;3.80;3.40;;;23.30;47.50;;;;;;5035599;28;20508;-65
2022/06/17 01:13:43;;;;;;;4.73;3.70;;;23.30;47.80;;;;;;5017188;28;20435;-65
2022/06/17 01:16:09;;;;;;;3.57;3.10;;;23.20;47.90;;;;;;5035503;28;20445;-65
2022/06/17 01:18:38;;;;;;;3.50;3.20;;;23.20;48.20;;;;;;5035495;28;20438;-64
2022/06/17 01:21:19;;;;;;;4.13;3.20;;;23.10;48.70;;;;;;5031196;28;20443;-64
2022/06/17 01:23:45;;;;;;;4.80;3.10;;;23.10;48.70;;;;;;5037344;28;20433;-64
2022/06/17 01:26:12;;;;;;;3.70;3.40;;;23.10;49.00;;;;;;5036304;28;20474;-65
2022/06/17 01:28:37;;;;;;;3.30;3.00;;;23.00;48.80;;;;;;5033286;28;20476;-65
2022/06/17 01:31:06;;;;;;;7.30;3.67;;;23.00;48.90;;;;;;5031852;28;20880;-64
2022/06/17 01:33:34;;;;;;;3.77;3.37;;;23.00;49.00;;;;;;5029041;28;20502;-64
2022/06/17 01:36:16;;;;;;;3.90;3.50;;;23.00;49.20;;;;;;5032211;28;20447;-64
2022/06/17 01:38:44;;;;;;;3.40;3.00;;;23.00;49.60;;;;;;5035054;28;20782;-64
2022/06/17 01:41:11;;;;;;;3.50;3.20;;;23.00;48.90;;;;;;5030327;28;20520;-65
2022/06/17 01:43:48;;;;;;;7.70;3.10;;;22.90;48.90;;;;;;5035345;28;20486;-64
2022/06/17 01:46:18;;;;;;;3.60;3.30;;;22.90;49.10;;;;;;5023203;28;20496;-65
2022/06/17 01:48:55;;;;;;;3.60;3.30;;;22.80;49.20;;;;;;5036155;28;20465;-66
2022/06/17 01:51:24;;;;;;;6.70;3.63;;;22.70;49.50;;;;;;5036550;28;20942;-65
2022/06/17 01:53:55;;;;;;;8.60;3.60;;;22.70;49.80;;;;;;5038899;28;20443;-65
2022/06/17 01:56:23;;;;;;;3.80;3.50;;;22.70;49.90;;;;;;5038734;28;20553;-65
2022/06/17 01:58:55;;;;;;;4.07;3.17;;;22.70;49.70;;;;;;5038278;28;20517;-65
2022/06/17 02:01:22;;;;;;;5.00;2.97;;;22.70;49.70;;;;;;5036751;28;20435;-65
2022/06/17 02:03:54;;;;;;;6.10;3.73;;;22.80;49.70;;;;;;5036749;28;20453;-65
2022/06/17 02:06:33;;;;;;;9.83;3.70;;;22.80;49.50;;;;;;5037601;28;20437;-65
2022/06/17 02:09:00;;;;;;;3.50;3.20;;;22.80;49.70;;;;;;5020612;28;21028;-65
2022/06/17 02:11:26;;;;;;;3.80;3.47;;;22.80;49.70;;;;;;5034532;28;20787;-65
2022/06/17 02:13:52;;;;;;;3.70;3.40;;;22.80;49.90;;;;;;5038471;28;20443;-65
2022/06/17 02:16:19;;;;;;;4.10;3.33;;;22.80;50.00;;;;;;5035100;28;20572;-65
2022/06/17 02:18:45;;;;;;;3.60;3.30;;;22.80;50.10;;;;;;5050361;28;20699;-64
2022/06/17 02:21:19;;;;;;;3.90;3.50;;;22.80;50.10;;;;;;5035928;28;20947;-64
2022/06/17 02:23:45;;;;;;;4.50;4.10;;;22.80;50.20;;;;;;5036186;28;20458;-64
2022/06/17 02:26:12;;;;;;;4.13;3.60;;;22.80;50.40;;;;;;5036924;28;20849;-64
2022/06/17 02:28:39;;;;;;;3.50;3.20;;;22.80;50.40;;;;;;5036851;28;20471;-64
2022/06/17 02:31:08;;;;;;;3.60;3.30;;;22.70;50.50;;;;;;5034764;28;20439;-64
2022/06/17 02:33:35;;;;;;;3.87;3.47;;;22.60;51.10;;;;;;5034524;28;20814;-63
2022/06/17 02:36:13;;;;;;;4.83;3.73;;;22.50;51.40;;;;;;5035960;28;20474;-64
2022/06/17 02:38:39;;;;;;;6.90;3.70;;;22.50;51.50;;;;;;5037182;28;21123;-64
2022/06/17 02:41:12;;;;;;;4.20;3.80;;;22.50;51.60;;;;;;5036026;28;20445;-64
2022/06/17 02:43:44;;;;;;;3.80;3.40;;;22.40;51.80;;;;;;5037551;28;20596;-63
2022/06/17 02:46:32;;;;;;;4.00;3.60;;;22.40;52.60;;;;;;5037660;28;20529;-64
2022/06/17 02:49:01;;;;;;;5.87;3.60;;;22.40;52.10;;;;;;5036163;28;20443;-63
2022/06/17 02:51:31;;;;;;;3.73;3.33;;;22.30;52.70;;;;;;5034864;28;20453;-64
2022/06/17 02:53:58;;;;;;;4.03;3.70;;;22.20;52.80;;;;;;5034677;28;20435;-65
2022/06/17 02:56:29;;;;;;;4.10;3.70;;;22.20;52.80;;;;;;5036643;28;20473;-64
2022/06/17 02:58:55;;;;;;;4.10;3.80;;;22.20;53.10;;;;;;5034662;28;20458;-64
2022/06/17 03:01:24;;;;;;;6.10;4.07;;;22.20;53.30;;;;;;5035309;28;20443;-63
2022/06/17 03:03:51;;;;;;;4.67;4.07;;;22.20;53.50;;;;;;5035698;28;20616;-64
2022/06/17 03:06:24;;;;;;;4.50;4.10;;;22.20;53.60;;;;;;5034251;28;20450;-64
2022/06/17 03:08:52;;;;;;;3.50;3.20;;;22.20;53.60;;;;;;5034899;28;20459;-64
2022/06/17 03:11:19;;;;;;;4.40;3.53;;;22.10;53.50;;;;;;5035978;28;20537;-64
2022/06/17 03:13:50;;;;;;;4.07;3.70;;;22.10;53.70;;;;;;5032347;28;20439;-63
2022/06/17 03:16:16;;;;;;;4.30;3.90;;;22.00;53.70;;;;;;5033612;28;20652;-64
2022/06/17 03:18:46;;;;;;;4.57;3.40;;;22.00;53.70;;;;;;5034951;28;20532;-63
2022/06/17 03:21:13;;;;;;;3.80;3.50;;;22.00;53.60;;;;;;5032081;28;20613;-63
2022/06/17 03:24:38;;;;;;;4.80;3.70;;;22.00;53.70;;;;;;5040530;28;20904;-65
2022/06/17 03:27:25;;;;;;;3.90;3.60;;;21.90;53.90;;;;;;4922370;29;20444;-66
2022/06/17 03:29:55;;;;;;;5.13;4.03;;;21.80;53.90;;;;;;4920460;29;20453;-65
2022/06/17 03:32:30;;;;;;;4.60;3.47;;;21.80;54.10;;;;;;4993567;28;20574;-65
2022/06/17 03:34:56;;;;;;;4.20;3.70;;;21.80;54.20;;;;;;5019156;28;20568;-64
2022/06/17 03:37:23;;;;;;;3.90;3.60;;;21.80;54.20;;;;;;5035454;28;20530;-65
2022/06/17 03:39:58;;;;;;;6.63;3.90;;;21.80;54.40;;;;;;5034551;28;20749;-65
2022/06/17 03:42:30;;;;;;;3.93;3.50;;;21.70;54.50;;;;;;5035083;28;20464;-64
2022/06/17 03:45:16;;;;;;;4.07;3.73;;;21.70;54.70;;;;;;5036980;28;20471;-64
2022/06/17 03:48:03;;;;;;;5.07;4.00;;;21.70;54.90;;;;;;5037691;28;20443;-64
2022/06/17 03:50:35;;;;;;;4.43;4.03;;;21.70;55.60;;;;;;5036265;28;20450;-64
2022/06/17 03:53:15;;;;;;;3.97;3.67;;;21.60;55.20;;;;;;5036441;28;20466;-64
2022/06/17 03:55:40;;;;;;;4.53;4.13;;;21.60;55.50;;;;;;5019342;28;20617;-65
2022/06/17 03:58:06;;;;;;;4.40;4.00;;;21.50;55.60;;;;;;5032413;28;20959;-64
2022/06/17 04:00:36;;;;;;;4.67;4.00;;;21.40;55.60;;;;;;5033857;28;20237;-64
2022/06/17 04:03:08;;;;;;;5.20;3.90;;;21.40;55.70;;;;;;5036586;28;20201;-64
2022/06/17 04:05:34;;;;;;;4.13;3.73;;;21.30;56.20;;;;;;5034539;28;20450;-64
2022/06/17 04:08:00;;;;;;;6.17;4.33;;;21.30;56.90;;;;;;5034201;28;20522;-63
2022/06/17 04:10:29;;;;;;;4.40;4.00;;;21.30;56.40;;;;;;5032840;28;20205;-66
2022/06/17 04:12:54;;;;;;;4.07;3.70;;;21.30;56.60;;;;;;5033120;28;20204;-64
2022/06/17 04:15:40;;;;;;;9.90;4.50;;;21.30;56.50;;;;;;5034638;28;20521;-63
2022/06/17 04:18:08;;;;;;;4.37;3.97;;;21.20;56.60;;;;;;5031231;28;20501;-65
2022/06/17 04:20:39;;;;;;;5.00;3.83;;;21.20;56.80;;;;;;5032568;28;20518;-64
2022/06/17 04:23:17;;;;;;;6.90;4.07;;;21.20;56.80;;;;;;5037413;28;20451;-64
2022/06/17 04:26:06;;;;;;;4.27;3.87;;;21.20;57.10;;;;;;5023781;28;20474;-64
2022/06/17 04:28:52;;;;;;;5.00;4.00;;;21.10;57.00;;;;;;5034590;28;20541;-64
2022/06/17 04:31:23;;;;;;;4.53;4.13;;;21.10;57.10;;;;;;5034675;28;20756;-65
2022/06/17 04:33:53;;;;;;;6.53;4.87;;;21.00;57.00;;;;;;5033089;28;21265;-65
2022/06/17 04:36:22;;;;;;;4.80;4.07;;;20.90;57.10;;;;;;5031808;28;20477;-64
2022/06/17 04:38:50;;;;;;;4.97;4.43;;;20.90;57.00;;;;;;5016299;28;20534;-64
2022/06/17 04:41:18;;;;;;;5.10;3.77;;;20.90;57.00;;;;;;5031623;28;20460;-65
2022/06/17 04:43:47;;;;;;;6.07;5.27;;;20.90;56.90;;;;;;5031633;28;20422;-65
2022/06/17 04:46:18;;;;;;;6.50;3.60;;;20.90;57.00;;;;;;5026996;28;20461;-64
2022/06/17 04:48:44;;;;;;;4.70;4.20;;;20.90;57.00;;;;;;5034683;28;20434;-64
2022/06/17 04:51:11;;;;;;;3.60;3.30;;;20.90;57.00;;;;;;5031906;28;20475;-64
2022/06/17 04:53:42;;;;;;;11.23;7.57;;;20.80;57.30;;;;;;5033775;28;20466;-64
2022/06/17 04:56:12;;;;;;;5.93;4.30;;;20.80;57.40;;;;;;5017382;28;20471;-64
2022/06/17 04:58:38;;;;;;;4.63;3.50;;;20.90;57.30;;;;;;5032454;28;20435;-64
2022/06/17 05:01:03;;;;;;;4.93;4.17;;;20.90;57.20;;;;;;5032274;28;20488;-64
2022/06/17 05:03:30;;;;;;;6.10;4.70;;;20.90;57.10;;;;;;5035792;28;20208;-64
2022/06/17 05:05:55;;;;;;;4.83;4.03;;;20.90;57.10;;;;;;5032562;28;20864;-64
2022/06/17 05:08:35;;;;;;;5.90;3.90;;;21.00;57.30;;;;;;5032110;28;20446;-64
2022/06/17 05:11:08;;;;;;;3.97;3.57;;;21.00;57.40;;;;;;5029514;28;20661;-64
2022/06/17 05:13:50;;;;;;;4.80;4.30;;;21.00;57.40;;;;;;5032929;28;20475;-65
2022/06/17 05:16:15;;;;;;;4.57;3.80;;;21.10;57.60;;;;;;5033881;28;20549;-64
2022/06/17 05:18:41;;;;;;;4.40;3.53;;;21.10;57.30;;;;;;5038920;28;20438;-64
2022/06/17 05:21:14;;;;;;;5.93;3.77;;;21.00;57.90;;;;;;5040318;28;20241;-64
2022/06/17 05:23:39;;;;;;;3.60;3.30;;;21.10;57.60;;;;;;5037217;28;20198;-64
2022/06/17 05:26:05;;;;;;;3.80;3.37;;;21.10;57.30;;;;;;5039544;28;20439;-63
2022/06/17 05:28:30;;;;;;;4.87;4.00;;;21.10;57.40;;;;;;5041678;28;20262;-63
2022/06/17 05:30:56;;;;;;;6.97;5.63;;;21.20;57.10;;;;;;5037152;28;20192;-63
2022/06/17 05:33:23;;;;;;;7.70;4.90;;;21.20;57.00;;;;;;5039004;28;20230;-64
2022/06/17 05:35:48;;;;;;;8.40;6.60;;;21.20;57.10;;;;;;5040765;28;20467;-64
2022/06/17 05:38:14;;;;;;;5.27;4.10;;;21.20;57.10;;;;;;5039835;28;20431;-64
2022/06/17 05:40:41;;;;;;;4.73;3.70;;;21.30;57.30;;;;;;5037808;28;20218;-66
2022/06/17 05:43:09;;;;;;;6.47;5.40;;;21.30;57.40;;;;;;5041499;28;20195;-64
2022/06/17 05:45:34;;;;;;;4.93;4.50;;;21.30;57.40;;;;;;5036753;28;20468;-66
2022/06/17 05:48:00;;;;;;;4.83;3.20;;;21.30;58.70;;;;;;5037887;28;20443;-64
2022/06/17 05:50:28;;;;;;;5.27;4.50;;;21.40;57.80;;;;;;5039486;28;20255;-65
2022/06/17 05:53:03;;;;;;;5.03;3.53;;;21.40;57.60;;;;;;5040719;28;20457;-64
2022/06/17 05:55:31;;;;;;;5.30;4.17;;;21.50;57.80;;;;;;5036791;28;20461;-64
2022/06/17 05:57:57;;;;;;;9.63;3.90;;;21.60;57.60;;;;;;5039860;28;20438;-64
2022/06/17 06:00:24;;;;;;;5.00;3.70;;;21.60;57.80;;;;;;5040140;28;20433;-65
2022/06/17 06:02:50;;;;;;;4.33;3.57;;;21.60;57.90;;;;;;5040055;28;20517;-65
2022/06/17 06:05:20;;;;;;;3.67;3.17;;;21.50;57.80;;;;;;5038908;28;20430;-65
2022/06/17 06:07:46;;;;;;;3.50;3.20;;;21.60;57.40;;;;;;5042098;28;20442;-65
2022/06/17 06:10:12;;;;;;;3.47;3.17;;;21.70;57.30;;;;;;5038735;28;20481;-65
2022/06/17 06:15:25;;;;;;;5.73;5.20;;;21.80;56.90;;;;;;5042443;28;20472;-65
2022/06/17 06:17:51;;;;;;;5.90;5.20;;;21.80;56.60;;;;;;5040055;28;20438;-64
2022/06/17 06:20:17;;;;;;;6.83;5.40;;;21.90;56.60;;;;;;5039646;28;20448;-66
2022/06/17 06:22:42;;;;;;;4.73;3.97;;;21.90;56.60;;;;;;5044622;28;20287;-66
2022/06/17 06:25:11;;;;;;;4.30;3.27;;;22.00;56.40;;;;;;5038954;28;20445;-64
2022/06/17 06:27:37;;;;;;;5.40;4.90;;;22.00;56.20;;;;;;5038080;28;20177;-65
2022/06/17 06:30:03;;;;;;;4.37;3.53;;;22.10;55.80;;;;;;5036004;28;20442;-66
2022/06/17 06:32:29;;;;;;;7.10;6.40;;;22.10;55.20;;;;;;5040461;28;20651;-66
2022/06/17 06:34:55;;;;;;;4.23;3.50;;;22.20;55.30;;;;;;5035363;28;20466;-64
2022/06/17 06:37:20;;;;;;;6.17;4.90;;;22.30;55.10;;;;;;5034878;28;20194;-63
2022/06/17 06:39:46;;;;;;;4.80;3.20;;;22.30;54.90;;;;;;5036773;28;20202;-65
2022/06/17 06:42:12;;;;;;;6.87;5.60;;;22.40;55.10;;;;;;5016226;28;20227;-65
2022/06/17 06:44:37;;;;;;;9.93;6.63;;;22.40;55.20;;;;;;5037034;28;20648;-65
2022/06/17 06:47:04;;;;;;;6.10;4.60;;;22.40;55.20;;;;;;5037982;28;20235;-65
2022/06/17 06:49:29;;;;;;;5.93;5.00;;;22.40;55.50;;;;;;5037347;28;20207;-65
2022/06/17 06:51:55;;;;;;;9.10;6.03;;;22.40;55.80;;;;;;5037251;28;20479;-65
2022/06/17 06:54:21;;;;;;;3.90;3.60;;;22.50;55.70;;;;;;5038995;28;20195;-65
2022/06/17 06:56:46;;;;;;;3.77;3.17;;;22.50;55.70;;;;;;5034192;28;20608;-65
2022/06/17 06:59:12;;;;;;;3.33;3.03;;;22.60;56.00;;;;;;5020582;28;20180;-65
2022/06/17 07:01:38;;;;;;;4.23;3.30;;;22.70;56.10;;;;;;5034106;28;20204;-65
2022/06/17 07:04:04;;;;;;;3.77;3.47;;;22.70;55.70;;;;;;5036286;28;21172;-65
2022/06/17 07:06:31;;;;;;;5.83;3.30;;;22.80;55.90;;;;;;5038107;28;20191;-65
2022/06/17 07:08:57;;;;;;;3.80;3.07;;;22.90;55.80;;;;;;5037212;28;20443;-65
2022/06/17 07:11:22;;;;;;;3.43;3.13;;;22.90;55.80;;;;;;5033697;28;20443;-65
2022/06/17 07:13:48;;;;;;;3.53;2.87;;;22.90;55.80;;;;;;5020486;28;20271;-65
2022/06/17 07:16:14;;;;;;;4.50;3.40;;;23.00;55.60;;;;;;5035027;28;20299;-64
2022/06/17 07:18:40;;;;;;;3.17;2.90;;;23.00;55.80;;;;;;5032875;28;20187;-65
2022/06/17 07:21:11;;;;;;;5.63;4.27;;;23.10;55.70;;;;;;5036619;28;22468;-64
2022/06/17 07:23:43;;;;;;;5.70;3.53;;;23.10;55.90;;;;;;5037528;28;20213;-65
2022/06/17 07:26:21;;;;;;;4.40;3.50;;;23.20;55.60;;;;;;5036581;28;20434;-65
2022/06/17 07:28:49;;;;;;;11.93;10.73;;;23.30;55.40;;;;;;5039092;28;20434;-64
2022/06/17 07:31:14;;;;;;;6.80;6.20;;;23.40;55.50;;;;;;5030339;28;20517;-64
2022/06/17 07:33:40;;;;;;;5.10;4.40;;;23.40;55.50;;;;;;5033680;28;20568;-64
2022/06/17 07:36:10;;;;;;;4.33;3.93;;;23.50;55.30;;;;;;5037029;28;20588;-64
2022/06/17 07:41:24;;;;;;;3.83;3.50;;;23.50;55.40;;;;;;5029731;28;20447;-64
2022/06/17 07:43:51;;;;;;;10.40;4.80;;;23.70;55.30;;;;;;5038387;28;20834;-64
2022/06/17 07:46:17;;;;;;;6.63;5.37;;;23.70;55.30;;;;;;5032458;28;20446;-64
2022/06/17 07:48:43;;;;;;;4.50;3.60;;;23.70;55.30;;;;;;5033494;28;20884;-64
2022/06/17 07:51:10;;;;;;;4.80;3.40;;;23.80;55.10;;;;;;5022151;28;20517;-64
2022/06/17 07:53:36;;;;;;;4.70;3.30;;;23.90;54.80;;;;;;5034917;28;20210;-66
2022/06/17 07:56:03;;;;;;;6.23;3.73;;;24.00;54.90;;;;;;5033619;28;20463;-66
2022/06/17 07:58:29;;;;;;;5.97;3.53;;;24.00;54.60;;;;;;5035526;28;20427;-66
2022/06/17 08:00:55;;;;;;;4.10;3.03;;;24.10;54.50;;;;;;5032186;28;20480;-65
2022/06/17 08:03:22;;;;;;;3.80;2.90;;;24.20;54.20;;;;;;5032761;28;20321;-65
2022/06/17 08:05:54;;;;;;;5.13;3.10;;;24.30;54.20;;;;;;5034181;28;20266;-65
2022/06/17 08:08:23;;;;;;;4.30;3.33;;;24.30;54.20;;;;;;5035615;28;20434;-65
2022/06/17 08:10:55;;;;;;;3.83;3.00;;;24.30;54.40;;;;;;5035984;28;20547;-65
2022/06/17 08:13:21;;;;;;;4.87;3.07;;;24.40;54.50;;;;;;5030449;28;20485;-65
2022/06/17 08:15:49;;;;;;;7.00;3.43;;;24.50;54.70;;;;;;5032063;28;20467;-65
2022/06/17 08:18:14;;;;;;;9.83;3.17;;;24.60;54.60;;;;;;5034133;28;20427;-65
2022/06/17 08:20:41;;;;;;;4.10;3.07;;;24.70;54.40;;;;;;5015271;28;20439;-64
2022/06/17 08:23:08;;;;;;;3.80;3.40;;;24.70;54.70;;;;;;5034388;28;20200;-64
2022/06/17 08:25:35;;;;;;;5.27;3.30;;;25.00;54.50;;;;;;5037322;28;20532;-65
2022/06/17 08:28:04;;;;;;;3.27;3.07;;;25.20;54.30;;;;;;5034633;28;20438;-64
2022/06/17 08:30:33;;;;;;;3.77;3.43;;;25.20;54.40;;;;;;5035459;28;20438;-64
2022/06/17 08:32:58;;;;;;;7.00;6.00;;;25.30;53.90;;;;;;5032254;28;20846;-64
2022/06/17 08:35:44;;;;;;;3.90;3.50;;;25.30;53.90;;;;;;5034581;28;20455;-64
2022/06/17 08:38:24;;;;;;;6.40;5.20;;;25.30;53.50;;;;;;5034590;28;20862;-64
2022/06/17 08:40:52;;;;;;;5.40;3.70;;;25.40;53.40;;;;;;5030733;28;20469;-64
2022/06/17 08:43:36;;;;;;;4.00;3.53;;;25.40;53.50;;;;;;5032385;28;20466;-64
2022/06/17 08:46:23;;;;;;;4.57;3.10;;;25.50;53.40;;;;;;5037260;28;20601;-64
2022/06/17 08:49:01;;;;;;;3.77;3.47;;;25.50;53.10;;;;;;5035565;28;20531;-64
2022/06/17 08:51:48;;;;;;;3.73;3.43;;;25.50;53.10;;;;;;5034120;28;20430;-64
2022/06/17 08:54:13;;;;;;;4.53;3.40;;;25.50;52.70;;;;;;5035324;28;21554;-63
2022/06/17 08:56:51;;;;;;;3.47;3.10;;;25.50;52.80;;;;;;5028877;28;20463;-63
2022/06/17 08:59:27;;;;;;;3.80;3.47;;;25.60;53.00;;;;;;5033203;28;20257;-64
2022/06/17 09:02:21;;;;;;;4.60;3.37;;;25.60;52.30;;;;;;5029950;28;20473;-63
2022/06/17 09:05:19;;;;;;;6.57;3.47;;;25.60;51.90;;;;;;5033307;28;20446;-64
2022/06/17 09:08:15;;;;;;;4.03;3.10;;;25.60;51.60;;;;;;5033417;28;20442;-63
2022/06/17 09:11:05;;;;;;;4.23;3.27;;;25.70;52.00;;;;;;5034281;28;20450;-63
2022/06/17 09:14:08;;;;;;;3.80;3.47;;;25.80;52.30;;;;;;5035914;28;20960;-64
2022/06/17 09:16:54;;;;;;;3.63;3.17;;;25.90;51.90;;;;;;5030852;28;20540;-63
2022/06/17 09:19:29;;;;;;;3.57;3.23;;;25.90;51.90;;;;;;5012320;28;20449;-64
2022/06/17 09:22:01;;;;;;;5.40;3.37;;;26.00;51.90;;;;;;5034495;28;20507;-63
2022/06/17 09:24:36;;;;;;;3.80;3.43;;;26.00;52.00;;;;;;5033965;28;20427;-62
2022/06/17 09:27:10;;;;;;;3.47;3.17;;;26.10;51.70;;;;;;5032353;28;20434;-63
2022/06/17 09:30:20;;;;;;;6.07;3.67;;;26.10;51.40;;;;;;5031921;28;20435;-63
2022/06/17 09:32:54;;;;;;;3.50;3.20;;;26.10;51.80;;;;;;4932963;28;20471;-63
2022/06/17 09:35:20;;;;;;;3.00;2.77;;;26.10;51.90;;;;;;5014979;28;20470;-63
2022/06/17 09:37:55;;;;;;;3.43;3.13;;;26.10;51.70;;;;;;5029621;28;20806;-62
2022/06/17 09:40:38;;;;;;;4.43;3.47;;;26.20;52.10;;;;;;5030044;28;20188;-63
2022/06/17 09:43:22;;;;;;;3.73;3.43;;;26.30;51.80;;;;;;5032076;28;20460;-63
2022/06/17 09:45:53;;;;;;;4.47;3.10;;;26.30;51.40;;;;;;5037137;28;20438;-63
2022/06/17 09:48:25;;;;;;;3.43;3.13;;;26.40;51.80;;;;;;5032484;28;20530;-63
2022/06/17 09:50:57;;;;;;;6.07;2.93;;;26.40;51.50;;;;;;5035052;28;20426;-63
2022/06/17 09:53:57;;;;;;;3.40;3.10;;;26.50;51.70;;;;;;5030519;28;20475;-63
2022/06/17 09:56:52;;;;;;;13.23;3.33;;;26.60;51.50;;;;;;5032616;28;20458;-63
2022/06/17 09:59:32;;;;;;;5.07;3.10;;;26.60;50.90;;;;;;5034096;28;20523;-63
2022/06/17 10:02:11;;;;;;;3.80;3.33;;;26.70;50.70;;;;;;5028140;28;20707;-65
2022/06/17 10:04:36;;;;;;;3.10;2.87;;;26.80;50.60;;;;;;5031030;28;20966;-64
2022/06/17 10:07:28;;;;;;;3.43;3.13;;;26.90;48.30;;;;;;5014870;28;20912;-66
2022/06/17 10:10:14;;;;;;;4.13;3.57;;;26.90;47.50;;;;;;5005850;28;20600;-65
2022/06/17 10:12:49;;;;;;;6.67;5.33;;;26.90;48.40;;;;;;5032796;28;20825;-65
2022/06/17 10:15:33;;;;;;;4.00;3.50;;;27.00;48.70;;;;;;5035415;28;20458;-65
2022/06/17 10:18:31;;;;;;;4.43;4.03;;;27.10;48.70;;;;;;5039209;28;20431;-65
2022/06/17 10:21:24;;;;;;;8.13;3.50;;;27.10;48.40;;;;;;5017778;28;20439;-65
2022/06/17 10:24:35;;;;;;;6.83;5.07;;;27.30;48.00;;;;;;5034915;28;20434;-65
2022/06/17 10:27:32;;;;;;;6.10;3.50;;;27.30;47.90;;;;;;5006871;28;20522;-65
2022/06/17 10:30:07;;;;;;;3.57;3.10;;;27.30;47.50;;;;;;5034189;28;21441;-64
2022/06/17 10:32:36;;;;;;;3.63;3.20;;;27.40;47.70;;;;;;5035897;28;21109;-66
2022/06/17 10:35:04;;;;;;;3.67;3.37;;;27.40;47.80;;;;;;5006245;28;20487;-65
2022/06/17 10:37:34;;;;;;;3.60;3.30;;;27.50;47.00;;;;;;5036665;28;20439;-65
2022/06/17 10:40:01;;;;;;;5.57;5.07;;;27.70;47.00;;;;;;5035773;28;20427;-65
2022/06/17 10:42:28;;;;;;;4.30;3.70;;;27.70;47.00;;;;;;5033685;28;20542;-64
2022/06/17 10:44:57;;;;;;;3.43;3.10;;;27.80;46.30;;;;;;5032730;28;20415;-65
2022/06/17 10:47:40;;;;;;;3.23;2.97;;;27.80;46.20;;;;;;5047542;28;20988;-64
2022/06/17 10:50:22;;;;;;;3.10;2.73;;;27.80;45.40;;;;;;5048815;28;20435;-64
2022/06/17 10:53:00;;;;;;;3.10;2.90;;;27.90;45.10;;;;;;5034771;28;20544;-64
2022/06/17 10:55:34;;;;;;;4.20;3.80;;;28.00;44.60;;;;;;5036442;28;20433;-65
2022/06/17 10:58:08;;;;;;;3.43;3.13;;;28.10;44.90;;;;;;5035611;28;20521;-64
2022/06/17 11:00:52;;;;;;;3.00;2.80;;;28.30;45.10;;;;;;5034698;28;20433;-64
2022/06/17 11:03:30;;;;;;;3.10;2.90;;;28.40;45.10;;;;;;5033654;28;20449;-64
2022/06/17 11:06:14;;;;;;;3.33;2.93;;;28.40;44.70;;;;;;5033517;28;20431;-64
2022/06/17 11:08:41;;;;;;;2.93;2.60;;;28.50;44.90;;;;;;5033533;28;21158;-66
2022/06/17 11:13:57;;;;;;;2.80;2.60;;;28.60;44.10;;;;;;5033922;28;20460;-65
2022/06/17 11:16:25;;;;;;;5.60;2.97;;;28.70;44.30;;;;;;5033898;28;20454;-65
2022/06/17 11:18:58;;;;;;;3.07;2.87;;;28.80;44.50;;;;;;5033829;28;20431;-65
2022/06/17 11:21:28;;;;;;;3.03;2.83;;;28.90;43.30;;;;;;5032080;28;20789;-65
2022/06/17 11:23:58;;;;;;;2.47;2.27;;;29.00;43.50;;;;;;5039340;28;20425;-65
2022/06/17 11:26:30;;;;;;;2.63;2.37;;;29.10;41.00;;;;;;5035627;28;21251;-65
2022/06/17 11:28:59;;;;;;;2.93;2.50;;;29.20;40.80;;;;;;5014239;28;21713;-65
2022/06/17 11:31:24;;;;;;;3.67;2.80;;;29.40;40.80;;;;;;5037384;28;20453;-65
2022/06/17 11:33:53;;;;;;;2.90;2.60;;;29.50;40.70;;;;;;5036088;28;20462;-65
2022/06/17 11:36:20;;;;;;;2.97;2.50;;;29.70;41.00;;;;;;5034761;28;20618;-65
2022/06/17 11:38:46;;;;;;;2.67;2.47;;;29.80;40.60;;;;;;5038083;28;20431;-65
2022/06/17 11:41:23;;;;;;;5.53;2.63;;;30.10;40.00;;;;;;5033526;28;20424;-66
2022/06/17 11:43:49;;;;;;;3.20;2.70;;;30.30;38.70;;;;;;5035153;28;20405;-65
2022/06/17 11:46:25;;;;;;;2.70;2.50;;;30.60;38.10;;;;;;5038667;28;20999;-65
2022/06/17 11:48:57;;;;;;;2.90;2.40;;;30.80;36.70;;;;;;5038035;28;20401;-65
2022/06/17 11:51:28;;;;;;;2.73;2.53;;;30.80;36.70;;;;;;5033136;28;20410;-66
2022/06/17 11:54:05;;;;;;;4.30;2.50;;;31.20;37.90;;;;;;5037249;28;20775;-65
2022/06/17 11:56:41;;;;;;;2.57;2.37;;;31.50;38.20;;;;;;5032310;28;20587;-65
2022/06/17 11:59:09;;;;;;;2.27;2.00;;;31.90;37.20;;;;;;5034902;28;20401;-65
2022/06/17 12:01:36;;;;;;;2.47;2.27;;;32.30;36.80;;;;;;5037048;28;20877;-66
2022/06/17 12:04:02;;;;;;;3.87;2.33;;;33.00;35.00;;;;;;5017168;28;20401;-66
2022/06/17 12:06:42;;;;;;;2.40;2.20;;;33.90;33.50;;;;;;5032995;28;20448;-66
2022/06/17 12:09:38;;;;;;;2.70;2.40;;;35.50;33.40;;;;;;5035435;28;20549;-66
2022/06/17 12:12:09;;;;;;;3.60;2.40;;;38.10;31.50;;;;;;5030345;28;20459;-66
2022/06/17 12:15:04;;;;;;;4.43;2.30;;;39.70;30.10;;;;;;5032856;28;20477;-66
2022/06/17 12:17:31;;;;;;;2.47;2.27;;;41.10;29.10;;;;;;5030740;28;20448;-66
2022/06/17 12:19:59;;;;;;;2.40;2.20;;;42.10;28.20;;;;;;5034049;28;20907;-66
2022/06/17 12:22:40;;;;;;;2.70;2.50;;;42.60;27.20;;;;;;5032244;28;20459;-66
2022/06/17 12:25:41;;;;;;;2.40;2.20;;;42.80;27.00;;;;;;5033755;28;20434;-66
2022/06/17 12:28:17;;;;;;;2.60;2.40;;;43.30;27.10;;;;;;5036124;28;20431;-66
2022/06/17 12:31:03;;;;;;;2.67;2.43;;;44.00;26.70;;;;;;5031240;28;20516;-66
2022/06/17 12:33:47;;;;;;;2.50;2.30;;;44.30;25.90;;;;;;5033072;28;20836;-66
2022/06/17 12:36:20;;;;;;;2.33;2.13;;;44.60;25.30;;;;;;5025650;28;20479;-66
2022/06/17 12:38:57;;;;;;;2.70;2.40;;;44.80;24.90;;;;;;5031435;28;20520;-66
2022/06/17 12:42:04;;;;;;;2.37;2.17;;;44.80;24.50;;;;;;5030312;28;20529;-65
2022/06/17 12:44:50;;;;;;;2.43;2.23;;;45.10;24.10;;;;;;5018660;28;20865;-66
2022/06/17 12:47:37;;;;;;;2.37;2.17;;;45.20;24.20;;;;;;5015376;28;20453;-65
2022/06/17 12:53:16;;;;;;;2.30;2.10;;;45.70;25.00;;;;;;5029228;28;20448;-65
2022/06/17 12:55:45;;;;;;;2.10;2.00;;;46.10;24.90;;;;;;5035206;28;20469;-64
2022/06/17 12:58:41;;;;;;;2.50;2.30;;;45.60;24.30;;;;;;5031118;28;20513;-64
2022/06/17 13:01:16;;;;;;;2.70;2.30;;;45.70;24.50;;;;;;5030332;28;20421;-66
2022/06/17 13:03:52;;;;;;;2.77;2.57;;;46.00;24.10;;;;;;5019499;28;20437;-66
2022/06/17 13:06:36;;;;;;;2.70;2.50;;;46.10;23.30;;;;;;5029580;28;20453;-66
2022/06/17 13:09:10;;;;;;;2.60;2.40;;;46.40;23.40;;;;;;5033230;28;20445;-66
2022/06/17 13:11:47;;;;;;;2.40;2.20;;;46.40;23.00;;;;;;5028872;28;20512;-66
2022/06/17 13:14:29;;;;;;;3.13;2.93;;;46.30;23.20;;;;;;5029556;28;20442;-65
2022/06/17 13:17:00;;;;;;;2.30;2.10;;;46.40;23.40;;;;;;5030756;28;20469;-66
2022/06/17 13:19:33;;;;;;;2.50;2.30;;;46.00;22.80;;;;;;5030092;28;20428;-65
2022/06/17 13:22:25;;;;;;;2.83;2.17;;;46.00;23.70;;;;;;5030290;28;20483;-65
2022/06/17 13:25:16;;;;;;;2.47;2.03;;;46.40;23.30;;;;;;5017708;28;20434;-65
2022/06/17 13:28:06;;;;;;;2.50;2.30;;;46.60;22.90;;;;;;5031023;28;20419;-66
2022/06/17 13:30:41;;;;;;;2.20;2.00;;;46.40;22.30;;;;;;5024239;28;20484;-66